createdAt,value
2023-04-20T00:00:00.000Z,12.32
2023-04-20T00:15:00.000Z,11.99
2023-04-20T00:30:00.000Z,11.34
2023-04-20T00:45:00.000Z,12.82
2023-04-20T01:00:00.000Z,16.24
2023-04-20T01:15:00.000Z,14.74
2023-04-20T01:30:00.000Z,14.31
2023-04-20T01:45:00.000Z,13.73
2023-04-20T02:00:00.000Z,14.01
2023-04-20T02:15:00.000Z,13.04
2023-04-20T02:30:00.000Z,13.19
2023-04-20T02:45:00.000Z,12.34
2023-04-20T03:00:00.000Z,11.91
2023-04-20T03:15:00.000Z,12.28
2023-04-20T03:30:00.000Z,14.59
2023-04-20T03:45:00.000Z,14.53
2023-04-20T04:00:00.000Z,12.09
2023-04-20T04:15:00.000Z,9.24
2023-04-20T04:30:00.000Z,5.79
2023-04-20T04:45:00.000Z,3.47
2023-04-20T05:00:00.000Z,3.32
2023-04-20T05:15:00.000Z,3.09
2023-04-20T05:30:00.000Z,1.96
2023-04-20T05:45:00.000Z,2.95
2023-04-20T06:00:00.000Z,3.78
2023-04-20T06:15:00.000Z,3.4
2023-04-20T06:30:00.000Z,3
2023-04-20T06:45:00.000Z,2.66
2023-04-20T07:00:00.000Z,3.31
2023-04-20T07:15:00.000Z,3.11
2023-04-20T07:30:00.000Z,1.79
2023-04-20T07:45:00.000Z,1.82
2023-04-20T08:00:00.000Z,2.79
2023-04-20T08:15:00.000Z,5.31
2023-04-20T08:30:00.000Z,6.32
2023-04-20T08:45:00.000Z,2.53
2023-04-20T09:00:00.000Z,1.52
2023-04-20T09:15:00.000Z,1.27
2023-04-20T09:30:00.000Z,1.38
2023-04-20T09:45:00.000Z,1.72
2023-04-20T10:00:00.000Z,1.28
2023-04-20T10:15:00.000Z,1.44
2023-04-20T10:30:00.000Z,1.65
2023-04-20T10:45:00.000Z,1.58
2023-04-20T11:00:00.000Z,1.65
2023-04-20T11:15:00.000Z,1.96
2023-04-20T11:30:00.000Z,3.55
2023-04-20T11:45:00.000Z,3
2023-04-20T12:00:00.000Z,3.75
2023-04-20T12:15:00.000Z,4.39
2023-04-20T12:30:00.000Z,8.09
2023-04-20T12:45:00.000Z,9.95
2023-04-20T13:00:00.000Z,6.34
2023-04-20T13:15:00.000Z,6.29
2023-04-20T13:30:00.000Z,7.87
2023-04-20T13:45:00.000Z,9.48
2023-04-20T14:00:00.000Z,8.89
2023-04-20T14:15:00.000Z,8.41
2023-04-20T14:30:00.000Z,11.99
2023-04-20T14:45:00.000Z,10.79
2023-04-20T15:00:00.000Z,11.69
2023-04-20T15:15:00.000Z,10.79
2023-04-20T15:30:00.000Z,11.11
2023-04-20T15:45:00.000Z,14.58
2023-04-20T16:00:00.000Z,20.62
2023-04-20T16:15:00.000Z,15.34
2023-04-20T16:30:00.000Z,16.64
2023-04-20T16:45:00.000Z,10.91
2023-04-20T17:00:00.000Z,12.38
2023-04-20T17:15:00.000Z,11.82
2023-04-20T17:30:00.000Z,12.32
2023-04-20T17:45:00.000Z,14.44
2023-04-20T18:00:00.000Z,18.58
2023-04-20T18:15:00.000Z,17
2023-04-20T18:30:00.000Z,15.69
2023-04-20T18:45:00.000Z,17.15
2023-04-20T19:15:00.000Z,16.31
2023-04-20T19:30:00.000Z,15.09
2023-04-20T19:45:00.000Z,15.67
2023-04-20T20:00:00.000Z,15.4
2023-04-20T20:15:00.000Z,16.91
2023-04-20T20:30:00.000Z,18.12
2023-04-20T20:45:00.000Z,23.62
2023-04-20T21:00:00.000Z,26.79
2023-04-20T21:15:00.000Z,28.85
2023-04-20T21:30:00.000Z,31.33
2023-04-20T21:45:00.000Z,32.39
2023-04-20T22:00:00.000Z,32.98
2023-04-20T22:15:00.000Z,33.09
2023-04-20T22:30:00.000Z,32.22
2023-04-20T22:45:00.000Z,32.61
2023-04-20T23:00:00.000Z,31.69
2023-04-20T23:15:00.000Z,31.16
2023-04-20T23:30:00.000Z,28.81
2023-04-20T23:45:00.000Z,28.4
